createdAt,value
2019-02-15T00:00:27.480Z,73.83
2019-02-15T00:02:56.114Z,73.57
2019-02-15T00:05:24.676Z,73.56
2019-02-15T00:07:53.201Z,73.49
2019-02-15T00:10:21.757Z,73.49
2019-02-15T00:12:50.397Z,73.54
2019-02-15T00:15:19.070Z,73.54
2019-02-15T00:17:52.167Z,73.89
2019-02-15T00:20:31.342Z,73.89
2019-02-15T00:22:59.997Z,73.64
2019-02-15T00:25:28.627Z,73.69
2019-02-15T00:27:57.215Z,73.53
2019-02-15T00:30:28.967Z,73.30
2019-02-15T00:32:57.607Z,73.33
2019-02-15T00:35:26.254Z,73.21
2019-02-15T00:37:54.804Z,73.39
2019-02-15T00:40:23.308Z,73.49
2019-02-15T00:42:51.972Z,73.40
2019-02-15T00:45:22.170Z,73.40
2019-02-15T00:47:52.379Z,73.56
2019-02-15T00:50:22.675Z,73.56
2019-02-15T00:52:52.866Z,73.38
2019-02-15T00:55:25.792Z,73.86
2019-02-15T00:57:58.850Z,73.86
2019-02-15T01:00:31.660Z,73.97
2019-02-15T01:03:17.156Z,73.89
2019-02-15T01:05:47.353Z,74.22
2019-02-15T01:08:20.128Z,74.63
2019-02-15T01:10:50.428Z,74.63
2019-02-15T01:13:18.986Z,74.78
2019-02-15T01:15:47.609Z,74.54
2019-02-15T01:18:16.268Z,74.87
2019-02-15T01:20:44.837Z,75.36
2019-02-15T01:23:13.426Z,75.36
2019-02-15T01:25:43.691Z,75.07
2019-02-15T01:28:13.916Z,74.98
2019-02-15T01:30:46.807Z,75.29
2019-02-15T01:33:16.998Z,75.03
2019-02-15T01:35:56.113Z,74.87
2019-02-15T01:38:31.275Z,74.45
2019-02-15T01:41:13.048Z,74.45
2019-02-15T01:43:43.243Z,74.57
2019-02-15T01:46:15.821Z,74.49
2019-02-15T01:48:44.349Z,74.50
2019-02-15T01:51:12.988Z,74.47
2019-02-15T01:53:41.472Z,74.51
2019-02-15T01:56:10.025Z,74.55
2019-02-15T01:58:38.643Z,74.41
2019-02-15T02:01:07.331Z,74.29
2019-02-15T02:03:36.123Z,74.30
2019-02-15T02:06:04.971Z,74.58
2019-02-15T02:08:33.908Z,74.82
2019-02-15T02:11:02.561Z,75.28
2019-02-15T02:13:31.185Z,75.51
2019-02-15T02:15:59.786Z,75.48
2019-02-15T02:18:28.325Z,75.35
2019-02-15T02:20:56.896Z,75.24
2019-02-15T02:23:25.502Z,75.45
2019-02-15T02:25:54.093Z,75.30
2019-02-15T02:28:22.729Z,75.33
2019-02-15T02:30:51.288Z,75.48
2019-02-15T02:33:19.976Z,75.45
2019-02-15T02:35:48.710Z,75.34
2019-02-15T02:38:17.341Z,75.22
2019-02-15T02:40:45.935Z,75.13
2019-02-15T02:43:14.483Z,75.16
2019-02-15T02:45:42.965Z,75.15
2019-02-15T02:48:11.540Z,75.23
2019-02-15T02:50:40.099Z,75.18
2019-02-15T02:53:08.713Z,75.23
2019-02-15T02:55:37.307Z,75.12
2019-02-15T02:58:05.996Z,75.17
2019-02-15T03:00:34.636Z,75.19
2019-02-15T03:03:03.290Z,75.15
2019-02-15T03:05:31.925Z,75.17
2019-02-15T03:08:00.558Z,75.08
2019-02-15T03:10:29.197Z,75.21
2019-02-15T03:12:57.673Z,75.02
2019-02-15T03:15:26.286Z,74.97
2019-02-15T03:17:54.941Z,75.03
2019-02-15T03:20:30.936Z,74.99
2019-02-15T03:22:54.105Z,74.95
2019-02-15T03:25:22.703Z,74.70
2019-02-15T03:27:51.252Z,74.88
2019-02-15T03:30:19.796Z,75.27
2019-02-15T03:32:48.459Z,75.24
2019-02-15T03:35:17.016Z,75.18
2019-02-15T03:37:47.144Z,75.26
2019-02-15T03:40:20.432Z,75.36
2019-02-15T03:42:49.000Z,74.94
2019-02-15T03:45:18.318Z,74.89
2019-02-15T03:47:46.924Z,74.88
2019-02-15T03:50:15.538Z,74.95
2019-02-15T03:52:44.089Z,74.92
2019-02-15T03:55:12.749Z,75.06
2019-02-15T03:57:42.138Z,74.92
2019-02-15T04:00:12.659Z,75.17
2019-02-15T04:02:41.322Z,75.11
2019-02-15T04:05:09.959Z,74.93
2019-02-15T04:07:38.626Z,74.78
2019-02-15T04:10:09.379Z,74.67
2019-02-15T04:12:38.001Z,74.68
2019-02-15T04:15:07.911Z,74.32
2019-02-15T04:17:36.572Z,74.32
2019-02-15T04:20:07.923Z,73.89
2019-02-15T04:22:36.476Z,73.94
2019-02-15T04:25:05.929Z,74.09
2019-02-15T04:27:34.562Z,74.20
2019-02-15T04:30:03.189Z,74.33
2019-02-15T04:32:31.786Z,74.27
2019-02-15T04:35:00.320Z,73.73
2019-02-15T04:37:28.900Z,73.70
2019-02-15T04:39:57.481Z,73.44
2019-02-15T04:42:26.042Z,73.29
2019-02-15T04:44:54.531Z,73.33
2019-02-15T04:47:23.201Z,73.36
2019-02-15T04:49:51.772Z,73.46
2019-02-15T04:52:20.316Z,73.40
2019-02-15T04:54:48.923Z,73.36
2019-02-15T04:57:17.477Z,73.42
2019-02-15T04:59:46.031Z,73.75
2019-02-15T05:02:14.626Z,73.76
2019-02-15T05:04:43.104Z,73.78
2019-02-15T05:07:11.599Z,73.27
2019-02-15T05:09:40.110Z,73.23
2019-02-15T05:12:08.613Z,73.23
2019-02-15T05:14:37.087Z,73.50
2019-02-15T05:17:05.715Z,73.55
2019-02-15T05:19:34.193Z,73.51
2019-02-15T05:22:02.676Z,73.72
2019-02-15T05:24:31.209Z,73.72
2019-02-15T05:26:59.756Z,73.61
2019-02-15T05:29:28.308Z,73.65
2019-02-15T05:31:56.943Z,73.40
2019-02-15T05:34:25.422Z,73.40
2019-02-15T05:36:53.963Z,73.73
2019-02-15T05:39:22.555Z,73.77
2019-02-15T05:41:51.110Z,73.91
2019-02-15T05:44:19.776Z,73.91
2019-02-15T05:46:49.897Z,73.94
2019-02-15T05:49:18.516Z,74.01
2019-02-15T05:51:47.643Z,73.97
2019-02-15T05:54:16.787Z,74.05
2019-02-15T05:56:45.384Z,74.03
2019-02-15T05:59:13.977Z,73.96
2019-02-15T06:01:42.545Z,74.01
2019-02-15T06:04:11.073Z,73.95
2019-02-15T06:06:39.562Z,73.90
2019-02-15T06:09:08.169Z,73.90
2019-02-15T06:11:36.789Z,73.82
2019-02-15T06:14:05.274Z,73.72
2019-02-15T06:16:33.861Z,73.69
2019-02-15T06:19:02.494Z,73.62
2019-02-15T06:21:31.081Z,73.68
2019-02-15T06:23:59.693Z,73.50
2019-02-15T06:26:28.245Z,73.40
2019-02-15T06:28:56.805Z,73.12
2019-02-15T06:31:26.915Z,73.03
2019-02-15T06:33:57.109Z,73.03
2019-02-15T06:36:27.305Z,72.90
2019-02-15T06:38:57.467Z,72.86
2019-02-15T06:41:27.731Z,72.63
2019-02-15T06:43:57.847Z,72.50
2019-02-15T06:46:26.509Z,72.39
2019-02-15T06:48:55.072Z,72.16
2019-02-15T06:51:23.632Z,71.91
2019-02-15T06:53:52.151Z,71.82
2019-02-15T06:56:22.410Z,71.59
2019-02-15T06:58:58.059Z,71.21
2019-02-15T07:01:35.176Z,70.91
2019-02-15T07:04:05.343Z,70.41
2019-02-15T07:06:33.892Z,70.16
2019-02-15T07:09:02.451Z,69.90
2019-02-15T07:11:30.962Z,69.91
2019-02-15T07:14:01.199Z,69.68
2019-02-15T07:16:29.687Z,69.81
2019-02-15T07:18:59.860Z,69.77
2019-02-15T07:21:28.556Z,69.53
2019-02-15T07:23:57.262Z,69.38
2019-02-15T07:26:27.358Z,69.19
2019-02-15T07:28:57.602Z,69.00
2019-02-15T07:31:26.103Z,68.91
2019-02-15T07:33:54.631Z,68.69
2019-02-15T07:36:23.237Z,68.09
2019-02-15T07:38:51.860Z,67.89
2019-02-15T07:41:20.471Z,67.46
2019-02-15T07:43:49.018Z,67.50
2019-02-15T07:46:17.707Z,67.33
2019-02-15T07:48:46.290Z,67.19
2019-02-15T07:51:14.975Z,66.87
2019-02-15T07:53:43.540Z,66.61
2019-02-15T07:56:12.144Z,65.17
2019-02-15T07:58:40.700Z,65.17
2019-02-15T08:01:09.270Z,63.79
2019-02-15T08:03:37.918Z,62.90
2019-02-15T08:06:06.479Z,61.73
2019-02-15T08:08:34.957Z,60.88
2019-02-15T08:11:03.609Z,60.12
2019-02-15T08:13:32.298Z,59.70
2019-02-15T08:16:02.685Z,60.28
2019-02-15T08:18:31.032Z,59.76
2019-02-15T08:20:59.589Z,58.41
2019-02-15T08:23:28.153Z,58.49
2019-02-15T08:25:56.762Z,58.48
2019-02-15T08:28:25.327Z,58.26
2019-02-15T08:30:53.937Z,57.35
2019-02-15T08:33:22.617Z,58.27
2019-02-15T08:35:51.114Z,58.29
2019-02-15T08:38:19.749Z,58.70
2019-02-15T08:40:48.321Z,57.83
2019-02-15T08:43:16.805Z,57.04
2019-02-15T08:45:45.439Z,55.66
2019-02-15T08:48:14.032Z,54.36
2019-02-15T08:50:42.699Z,55.06
2019-02-15T08:53:11.187Z,55.78
2019-02-15T08:55:40.707Z,55.07
2019-02-15T08:58:11.278Z,54.25
2019-02-15T09:00:39.473Z,52.74
2019-02-15T09:03:08.094Z,51.66
2019-02-15T09:05:36.655Z,51.35
2019-02-15T09:08:06.101Z,51.45
2019-02-15T09:10:34.709Z,50.09
2019-02-15T09:13:03.278Z,49.67
2019-02-15T09:15:31.838Z,50.34
2019-02-15T09:18:00.506Z,50.37
2019-02-15T09:20:28.998Z,49.27
2019-02-15T09:22:57.623Z,47.42
2019-02-15T09:25:26.218Z,45.88
2019-02-15T09:28:14.517Z,47.43
2019-02-15T09:30:45.578Z,47.54
2019-02-15T09:33:17.110Z,45.68
2019-02-15T09:35:47.380Z,45.26
2019-02-15T09:38:17.700Z,44.77
2019-02-15T09:40:51.574Z,44.36
2019-02-15T09:43:21.713Z,45.97
2019-02-15T09:45:51.908Z,46.10
2019-02-15T09:48:20.622Z,47.78
2019-02-15T09:50:49.158Z,47.59
2019-02-15T09:53:17.660Z,46.92
2019-02-15T09:55:46.163Z,44.88
2019-02-15T09:58:16.484Z,43.71
2019-02-15T10:00:45.477Z,45.21
2019-02-15T10:03:14.034Z,45.03
2019-02-15T10:05:42.699Z,45.63
2019-02-15T10:08:11.373Z,44.46
2019-02-15T10:10:39.945Z,44.49
2019-02-15T10:13:08.608Z,43.70
2019-02-15T10:15:37.162Z,42.64
2019-02-15T10:18:05.796Z,43.93
2019-02-15T10:20:34.495Z,44.40
2019-02-15T10:23:05.595Z,44.62
2019-02-15T10:25:34.221Z,44.71
2019-02-15T10:28:07.447Z,43.53
2019-02-15T10:30:36.010Z,42.96
2019-02-15T10:33:04.731Z,41.76
2019-02-15T10:35:33.373Z,40.75
2019-02-15T10:38:01.865Z,40.62
2019-02-15T10:40:30.498Z,39.79
2019-02-15T10:42:59.125Z,39.35
2019-02-15T10:45:27.690Z,40.48
2019-02-15T10:47:56.315Z,40.01
2019-02-15T10:50:24.886Z,40.10
2019-02-15T10:52:53.595Z,37.56
2019-02-15T10:55:22.240Z,39.09
2019-02-15T10:57:50.907Z,38.21
2019-02-15T11:00:20.520Z,37.69
2019-02-15T11:02:52.263Z,37.36
2019-02-15T11:05:20.866Z,38.11
2019-02-15T11:07:49.368Z,38.09
2019-02-15T11:10:17.997Z,37.25
2019-02-15T11:12:46.617Z,38.26
2019-02-15T11:15:16.998Z,39.53
2019-02-15T11:17:45.612Z,40.25
2019-02-15T11:20:16.967Z,40.96
2019-02-15T11:22:45.608Z,39.71
2019-02-15T11:25:14.305Z,39.02
2019-02-15T11:27:42.960Z,40.27
2019-02-15T11:30:13.912Z,40.94
2019-02-15T11:32:42.548Z,41.40
2019-02-15T11:35:12.914Z,41.23
2019-02-15T11:37:41.538Z,38.72
2019-02-15T11:40:15.192Z,38.18
2019-02-15T11:42:43.866Z,37.63
2019-02-15T11:45:16.219Z,38.55
2019-02-15T11:47:44.705Z,39.91
2019-02-15T11:50:14.471Z,40.42
2019-02-15T11:52:43.100Z,40.42
2019-02-15T11:55:11.947Z,40.79
2019-02-15T11:57:40.884Z,41.26
2019-02-15T12:00:14.844Z,41.64
2019-02-15T12:02:43.597Z,44.22
2019-02-15T12:05:13.243Z,43.48
2019-02-15T12:07:41.923Z,43.70
2019-02-15T12:10:11.477Z,42.86
2019-02-15T12:12:40.152Z,43.15
2019-02-15T12:15:10.649Z,42.94
2019-02-15T12:17:39.288Z,44.07
2019-02-15T12:20:13.411Z,43.20
2019-02-15T12:22:42.047Z,43.00
2019-02-15T12:25:10.741Z,41.76
2019-02-15T12:27:39.403Z,37.17
2019-02-15T12:30:13.207Z,36.02
2019-02-15T12:32:41.851Z,34.62
2019-02-15T12:35:11.249Z,34.66
2019-02-15T12:37:39.815Z,33.59
2019-02-15T12:40:10.035Z,32.67
2019-02-15T12:42:38.699Z,32.72
2019-02-15T12:45:10.225Z,31.53
2019-02-15T12:47:39.048Z,31.80
2019-02-15T12:50:16.301Z,30.54
2019-02-15T12:52:44.931Z,29.41
2019-02-15T12:55:13.642Z,30.64
2019-02-15T12:57:42.235Z,29.86
2019-02-15T13:00:13.355Z,29.86
2019-02-15T13:02:41.927Z,30.10
2019-02-15T13:05:11.787Z,29.16
2019-02-15T13:07:40.514Z,28.45
2019-02-15T13:10:12.388Z,28.77
2019-02-15T13:12:41.130Z,29.05
2019-02-15T13:15:11.371Z,29.92
2019-02-15T13:17:40.000Z,29.72
2019-02-15T13:20:10.166Z,29.01
2019-02-15T13:22:38.781Z,28.38
2019-02-15T13:25:08.418Z,28.19
2019-02-15T13:27:37.084Z,27.45
2019-02-15T13:30:08.945Z,28.10
2019-02-15T13:32:37.536Z,26.96
2019-02-15T13:35:08.468Z,26.88
2019-02-15T13:37:37.100Z,26.17
2019-02-15T13:40:07.943Z,27.15
2019-02-15T13:42:36.597Z,26.56
2019-02-15T13:45:07.672Z,26.45
2019-02-15T13:47:36.308Z,27.18
2019-02-15T13:50:06.991Z,27.23
2019-02-15T13:52:35.924Z,25.93
2019-02-15T13:55:05.562Z,26.14
2019-02-15T13:57:34.169Z,25.70
2019-02-15T14:00:02.906Z,24.44
2019-02-15T14:02:31.537Z,24.13
2019-02-15T14:05:00.287Z,24.59
2019-02-15T14:07:29.037Z,24.16
2019-02-15T14:09:57.677Z,24.02
2019-02-15T14:12:26.331Z,24.88
2019-02-15T14:14:54.891Z,25.54
2019-02-15T14:17:23.453Z,26.15
2019-02-15T14:19:52.096Z,26.60
2019-02-15T14:22:20.874Z,26.44
2019-02-15T14:24:49.556Z,25.49
2019-02-15T14:27:18.225Z,25.95
2019-02-15T14:29:46.871Z,25.79
2019-02-15T14:32:15.537Z,25.52
2019-02-15T14:34:44.121Z,24.71
2019-02-15T14:37:12.685Z,25.00
2019-02-15T14:39:41.346Z,24.73
2019-02-15T14:42:10.061Z,25.82
2019-02-15T14:44:40.237Z,25.54
2019-02-15T14:47:08.766Z,25.08
2019-02-15T14:49:37.360Z,25.27
2019-02-15T14:52:06.004Z,25.04
2019-02-15T14:54:34.557Z,25.62
2019-02-15T14:57:03.147Z,25.35
2019-02-15T14:59:31.711Z,25.52
2019-02-15T15:02:00.486Z,25.33
2019-02-15T15:04:29.017Z,25.73
2019-02-15T15:06:57.520Z,25.89
2019-02-15T15:09:26.166Z,27.42
2019-02-15T15:11:54.750Z,25.83
2019-02-15T15:14:23.383Z,25.40
2019-02-15T15:16:51.951Z,25.27
2019-02-15T15:19:20.694Z,25.30
2019-02-15T15:21:49.273Z,25.55
2019-02-15T15:24:17.823Z,25.60
2019-02-15T15:26:46.482Z,25.36
2019-02-15T15:29:15.222Z,25.53
2019-02-15T15:31:43.796Z,25.71
2019-02-15T15:34:12.462Z,25.61
2019-02-15T15:36:41.101Z,26.43
2019-02-15T15:39:11.365Z,27.04
2019-02-15T15:41:40.029Z,27.34
2019-02-15T15:44:08.653Z,28.36
2019-02-15T15:46:37.291Z,29.90
2019-02-15T15:49:05.967Z,30.82
2019-02-15T15:51:34.611Z,32.20
2019-02-15T15:54:03.257Z,33.25
2019-02-15T15:56:31.781Z,34.44
2019-02-15T15:59:00.419Z,35.35
2019-02-15T16:01:28.996Z,36.05
2019-02-15T16:03:57.735Z,36.92
2019-02-15T16:06:26.325Z,37.62
2019-02-15T16:08:54.935Z,39.52
2019-02-15T16:11:23.609Z,39.63
2019-02-15T16:13:52.166Z,40.92
2019-02-15T16:16:20.988Z,41.50
2019-02-15T16:18:49.631Z,42.35
2019-02-15T16:21:18.207Z,43.02
2019-02-15T16:23:46.775Z,43.27
2019-02-15T16:26:15.481Z,44.05
2019-02-15T16:28:44.027Z,44.37
2019-02-15T16:31:12.588Z,44.96
2019-02-15T16:33:41.265Z,44.51
2019-02-15T16:36:09.829Z,45.44
2019-02-15T16:38:38.398Z,44.65
2019-02-15T16:41:06.994Z,45.15
2019-02-15T16:43:35.567Z,45.70
2019-02-15T16:46:04.130Z,46.09
2019-02-15T16:48:41.742Z,45.62
2019-02-15T16:51:03.141Z,45.69
2019-02-15T16:53:31.825Z,45.84
2019-02-15T16:56:00.419Z,45.87
2019-02-15T16:58:28.974Z,45.93
2019-02-15T17:00:57.615Z,46.16
2019-02-15T17:03:26.350Z,46.32
2019-02-15T17:05:54.901Z,46.03
2019-02-15T17:08:23.585Z,46.30
2019-02-15T17:10:52.278Z,46.68
2019-02-15T17:13:20.842Z,47.59
2019-02-15T17:15:49.379Z,48.73
2019-02-15T17:18:17.907Z,49.37
2019-02-15T17:20:46.481Z,49.15
2019-02-15T17:23:15.088Z,49.32
2019-02-15T17:25:45.722Z,50.27
2019-02-15T17:28:13.910Z,51.19
2019-02-15T17:30:42.405Z,50.64
2019-02-15T17:33:10.958Z,52.18
2019-02-15T17:35:39.584Z,52.76
2019-02-15T17:38:08.217Z,53.57
2019-02-15T17:40:36.826Z,53.15
2019-02-15T17:43:05.472Z,53.59
2019-02-15T17:45:34.129Z,53.36
2019-02-15T17:48:02.796Z,53.82
2019-02-15T17:50:31.517Z,53.19
2019-02-15T17:53:00.078Z,52.93
2019-02-15T17:55:28.815Z,52.81
2019-02-15T17:57:57.506Z,53.14
2019-02-15T18:00:27.725Z,52.93
2019-02-15T18:02:56.520Z,53.61
2019-02-15T18:05:25.220Z,53.16
2019-02-15T18:07:53.823Z,53.46
2019-02-15T18:10:22.492Z,53.64
2019-02-15T18:12:51.078Z,53.53
2019-02-15T18:15:19.697Z,53.51
2019-02-15T18:17:48.406Z,53.60
2019-02-15T18:20:17.023Z,54.27
2019-02-15T18:22:45.656Z,55.22
2019-02-15T18:25:14.334Z,55.74
2019-02-15T18:27:43.052Z,57.00
2019-02-15T18:30:14.734Z,56.83
2019-02-15T18:32:43.401Z,57.17
2019-02-15T18:35:13.490Z,57.17
2019-02-15T18:37:42.184Z,57.20
2019-02-15T18:40:14.979Z,56.22
2019-02-15T18:42:45.249Z,56.07
2019-02-15T18:45:16.822Z,57.04
2019-02-15T18:47:45.567Z,57.04
2019-02-15T18:50:14.319Z,57.72
2019-02-15T18:52:42.968Z,57.43
2019-02-15T18:55:14.160Z,58.19
2019-02-15T18:57:42.982Z,57.96
2019-02-15T19:00:16.283Z,58.46
2019-02-15T19:02:49.056Z,57.94
2019-02-15T19:05:19.339Z,57.97
2019-02-15T19:07:48.095Z,58.26
2019-02-15T19:10:19.053Z,59.13
2019-02-15T19:12:51.705Z,58.94
2019-02-15T19:15:20.313Z,59.38
2019-02-15T19:17:49.037Z,59.79
2019-02-15T19:20:19.161Z,59.78
2019-02-15T19:22:49.188Z,60.20
2019-02-15T19:25:19.856Z,61.22
2019-02-15T19:27:48.507Z,60.89
2019-02-15T19:30:23.263Z,60.97
2019-02-15T19:32:52.029Z,61.29
2019-02-15T19:35:20.666Z,60.85
2019-02-15T19:37:52.226Z,60.94
2019-02-15T19:40:21.229Z,60.94
2019-02-15T19:42:52.515Z,61.19
2019-02-15T19:45:21.238Z,61.04
2019-02-15T19:47:49.837Z,61.52
2019-02-15T19:50:18.946Z,61.75
2019-02-15T19:52:49.019Z,61.57
2019-02-15T19:55:17.833Z,61.19
2019-02-15T19:57:46.891Z,61.27
2019-02-15T20:00:17.892Z,60.81
2019-02-15T20:02:46.716Z,61.42
2019-02-15T20:05:15.365Z,61.71
2019-02-15T20:07:44.294Z,61.51
2019-02-15T20:10:19.520Z,61.44
2019-02-15T20:12:48.147Z,62.67
2019-02-15T20:15:16.859Z,62.36
2019-02-15T20:17:45.728Z,62.82
2019-02-15T20:20:16.610Z,63.42
2019-02-15T20:22:45.240Z,62.67
2019-02-15T20:25:14.522Z,63.01
2019-02-15T20:27:43.172Z,63.60
2019-02-15T20:30:14.709Z,63.41
2019-02-15T20:32:43.487Z,63.09
2019-02-15T20:35:13.603Z,62.89
2019-02-15T20:37:42.549Z,63.24
2019-02-15T20:40:12.994Z,63.22
2019-02-15T20:42:44.682Z,63.51
2019-02-15T20:45:16.210Z,63.43
2019-02-15T20:47:48.089Z,63.25
2019-02-15T20:50:19.078Z,62.99
2019-02-15T20:52:49.461Z,63.15
2019-02-15T20:55:20.369Z,63.69
2019-02-15T20:57:50.580Z,63.81
2019-02-15T21:00:31.453Z,63.44
2019-02-15T21:03:01.630Z,63.97
2019-02-15T21:05:30.311Z,63.30
2019-02-15T21:07:58.979Z,63.68
2019-02-15T21:10:29.051Z,64.54
2019-02-15T21:12:57.629Z,64.07
2019-02-15T21:15:26.342Z,64.21
2019-02-15T21:17:57.877Z,63.76
2019-02-15T21:20:26.506Z,63.82
2019-02-15T21:22:55.179Z,63.46
2019-02-15T21:25:25.321Z,64.38
2019-02-15T21:27:55.604Z,64.63
2019-02-15T21:30:24.362Z,63.90
2019-02-15T21:32:52.945Z,64.06
2019-02-15T21:35:23.053Z,64.25
2019-02-15T21:37:51.750Z,65.16
2019-02-15T21:40:20.301Z,65.90
2019-02-15T21:42:48.939Z,65.83
2019-02-15T21:45:19.249Z,65.37
2019-02-15T21:47:48.090Z,65.37
2019-02-15T21:50:17.753Z,65.58
2019-02-15T21:52:46.701Z,65.91
2019-02-15T21:55:16.941Z,65.21
2019-02-15T21:57:45.608Z,65.21
2019-02-15T22:00:17.186Z,65.74
2019-02-15T22:02:45.970Z,64.93
2019-02-15T22:05:16.934Z,65.07
2019-02-15T22:07:47.069Z,65.07
2019-02-15T22:10:20.984Z,65.83
2019-02-15T22:12:49.552Z,65.73
2019-02-15T22:15:18.668Z,65.10
2019-02-15T22:17:47.311Z,66.23
2019-02-15T22:20:25.976Z,65.80
2019-02-15T22:22:47.250Z,65.97
2019-02-15T22:25:16.009Z,66.03
2019-02-15T22:27:44.623Z,65.52
2019-02-15T22:30:20.448Z,65.59
2019-02-15T22:32:49.086Z,65.59
2019-02-15T22:35:17.579Z,65.59
2019-02-15T22:37:46.199Z,66.13
2019-02-15T22:40:26.403Z,65.58
2019-02-15T22:42:54.925Z,65.85
2019-02-15T22:45:23.560Z,65.98
2019-02-15T22:47:52.186Z,66.28
2019-02-15T22:50:20.873Z,66.28
2019-02-15T22:52:49.473Z,65.93
2019-02-15T22:55:18.115Z,66.34
2019-02-15T22:57:48.417Z,65.93
2019-02-15T23:00:48.176Z,66.39
2019-02-15T23:03:18.695Z,67.17
2019-02-15T23:05:47.329Z,67.15
2019-02-15T23:08:15.960Z,67.15
2019-02-15T23:10:44.558Z,66.78
2019-02-15T23:13:13.154Z,67.46
2019-02-15T23:15:41.865Z,67.29
2019-02-15T23:18:10.534Z,67.54
2019-02-15T23:20:45.104Z,67.56
2019-02-15T23:23:09.578Z,67.44
2019-02-15T23:25:38.278Z,67.44
2019-02-15T23:28:06.975Z,67.30
2019-02-15T23:30:35.549Z,67.30
2019-02-15T23:33:04.162Z,66.91
2019-02-15T23:35:32.750Z,66.91
2019-02-15T23:38:02.893Z,67.87
2019-02-15T23:40:31.652Z,67.69
2019-02-15T23:43:00.265Z,67.75
2019-02-15T23:45:28.900Z,68.01
2019-02-15T23:47:57.508Z,68.14
2019-02-15T23:50:26.138Z,68.51
2019-02-15T23:52:54.773Z,68.51
2019-02-15T23:55:23.312Z,68.12
2019-02-15T23:57:51.956Z,68.31
